Search for airport 
image banner adimage banner adimage banner ad
image banner ad

3PN2 - Karlindo

Located in Fairfield, United States

ICAO - 3PN2, IATA -

Data provided by Airmate  

General information

Coordinates: N39°45'32" W77°20'51"
Elevation is 530 feet MSL.
Magnetic variation is -10° East
View others Airports in Pennsylvania

Operational data

Special qualification required
Current time UTC:
Current local time:
METAR: KHGR 091453Z 16005KT 5SM -RA SCT065 OVC080 08/04 A3008 RMK AO2 SLP200 P0003 60003 T00830044 56007
View NOTAMs / SUP AIP / TFR affecting this airport [VIEW]
Communications frequencies: [VIEW]

Runways:

RWY identifierQFULength (ft)Width (ft)SurfaceLDA (ft)
151200100GRASS
331200100GRASS

Airport contact information

Address: Fairfield United States

Satellite view of 3PN2